Time;durP1;ratioP1;P1;durP2;ratioP2;P2;SDS_P1;SDS_P2;PMS_P1;PMS_P2;Temp;Humidity;BMP_temperature;BMP_pressure;BME280_temperature;BME280_humidity;BME280_pressure;Samples;Min_cycle;Max_cycle;Signal;HPM_P1;HPM_P2
2023/05/14 00:00:55;;;;;;;20.82;5.60;;;;;;;14.05;45.04;100649.71;1635188;87;21299;-79
2023/05/14 00:04:00;;;;;;;16.65;5.22;;;;;;;14.25;44.39;100649.97;1635683;87;21311;-79
2023/05/14 00:07:05;;;;;;;22.42;6.25;;;;;;;14.28;44.45;100645.47;1636483;87;21229;-79
2023/05/14 00:10:10;;;;;;;15.32;5.17;;;;;;;14.21;44.40;100648.64;1636421;87;21275;-79
2023/05/14 00:13:17;;;;;;;17.85;6.53;;;;;;;14.21;44.45;100642.64;1636497;87;21216;-79
2023/05/14 00:16:22;;;;;;;10.53;5.65;;;;;;;14.31;44.34;100640.97;1636424;87;21259;-78
2023/05/14 00:19:28;;;;;;;12.15;6.25;;;;;;;14.23;44.49;100642.44;1636423;87;21227;-79
2023/05/14 00:22:33;;;;;;;16.07;6.15;;;;;;;14.13;44.76;100635.86;1636433;87;21794;-79
2023/05/14 00:25:40;;;;;;;24.43;6.72;;;;;;;14.21;44.86;100641.77;1636471;87;21280;-79
2023/05/14 00:28:45;;;;;;;20.65;7.30;;;;;;;14.26;44.86;100644.82;1623201;87;21268;-79
2023/05/14 00:31:51;;;;;;;24.47;6.92;;;;;;;14.25;45.05;100643.94;1609265;89;21240;-79
2023/05/14 00:34:57;;;;;;;20.75;7.05;;;;;;;14.06;45.52;100649.51;1615501;88;21854;-79
2023/05/14 00:38:02;;;;;;;21.42;7.85;;;;;;;14.29;45.54;100644.41;1622403;88;21233;-79
2023/05/14 00:41:09;;;;;;;23.02;7.60;;;;;;;14.11;45.93;100642.59;1626613;88;21215;-80
2023/05/14 00:44:14;;;;;;;17.92;6.80;;;;;;;13.99;46.40;100637.58;1626530;88;21237;-80
2023/05/14 00:47:18;;;;;;;18.20;6.83;;;;;;;14.03;46.35;100639.44;1626724;88;21201;-79
2023/05/14 00:50:22;;;;;;;18.62;7.28;;;;;;;14.06;46.19;100637.13;1626566;88;21248;-80
2023/05/14 00:53:28;;;;;;;20.90;7.45;;;;;;;14.21;46.02;100637.63;1598612;89;21275;-79
2023/05/14 00:56:33;;;;;;;20.43;6.92;;;;;;;14.29;45.76;100640.28;1609887;89;21224;-78
2023/05/14 00:59:40;;;;;;;31.48;10.50;;;;;;;14.27;45.80;100641.02;1606303;89;21262;-79
2023/05/14 01:02:45;;;;;;;23.20;7.67;;;;;;;14.04;46.47;100643.36;1609208;88;21252;-79
2023/05/14 01:06:15;;;;;;;27.62;8.88;;;;;;;14.31;46.17;100649.22;1609315;89;21228;-78
2023/05/14 01:09:34;;;;;;;19.55;8.23;;;;;;;14.27;46.40;100649.27;1627275;88;21192;-80
2023/05/14 01:12:59;;;;;;;19.50;7.45;;;;;;;14.05;46.98;100651.94;1625535;88;21217;-79
2023/05/14 01:16:05;;;;;;;18.45;8.15;;;;;;;14.16;46.82;100650.63;1597119;89;21281;-80
2023/05/14 01:19:11;;;;;;;20.02;7.60;;;;;;;14.23;46.59;100648.80;1626224;88;21209;-79
2023/05/14 01:22:17;;;;;;;21.07;7.25;;;;;;;14.44;46.21;100646.60;1625791;88;21366;-80
2023/05/14 01:25:23;;;;;;;18.12;6.83;;;;;;;14.41;46.26;100644.27;1596871;89;21245;-80
2023/05/14 01:28:35;;;;;;;18.42;7.42;;;;;;;14.43;46.05;100646.81;1616953;87;21229;-80
2023/05/14 01:31:34;;;;;;;18.77;7.25;;;;;;;14.36;46.16;100651.39;1633414;87;21231;-80
2023/05/14 01:34:30;;;;;;;22.42;7.92;;;;;;;14.23;46.53;100646.56;1613463;88;21236;-79
2023/05/14 01:37:16;;;;;;;27.90;9.40;;;;;;;14.18;46.71;100643.55;1602887;88;21304;-79
2023/05/14 01:40:16;;;;;;;31.60;10.30;;;;;;;14.04;47.04;100641.98;1622813;88;21339;-80
2023/05/14 01:43:22;;;;;;;22.07;9.43;;;;;;;14.00;47.24;100648.05;1622878;88;21228;-79
2023/05/14 01:46:28;;;;;;;34.95;9.18;;;;;;;13.92;47.52;100641.27;1621622;88;21822;-79
2023/05/14 01:49:35;;;;;;;38.35;9.53;;;;;;;13.89;47.56;100641.15;1608164;88;21751;-80
2023/05/14 01:52:42;;;;;;;32.23;9.40;;;;;;;13.79;47.66;100647.45;1616708;88;22586;-80
2023/05/14 01:55:48;;;;;;;31.68;10.28;;;;;;;13.86;47.60;100647.02;1621906;88;21288;-79
2023/05/14 01:58:55;;;;;;;33.53;11.78;;;;;;;13.97;47.47;100643.81;1622336;88;21783;-78
2023/05/14 02:02:01;;;;;;;34.58;12.05;;;;;;;14.00;47.60;100644.78;1620716;88;21208;-78
2023/05/14 02:05:06;;;;;;;46.90;12.35;;;;;;;14.09;47.73;100645.54;1616815;88;21265;-79
2023/05/14 02:08:11;;;;;;;50.10;13.78;;;;;;;14.13;47.61;100650.14;1619321;88;21296;-78
2023/05/14 02:11:11;;;;;;;34.83;13.10;;;;;;;14.01;48.03;100651.13;1605391;88;21233;-78
2023/05/14 02:14:17;;;;;;;47.62;13.48;;;;;;;13.92;48.24;100653.12;1619449;88;21197;-78
2023/05/14 02:17:22;;;;;;;31.62;11.97;;;;;;;13.99;48.28;100649.95;1622137;88;21261;-79
2023/05/14 02:20:29;;;;;;;34.88;10.45;;;;;;;14.02;48.27;100648.21;1610933;88;21276;-79
2023/05/14 02:23:35;;;;;;;36.25;9.78;;;;;;;14.15;47.98;100650.79;1621410;88;21259;-79
2023/05/14 02:26:39;;;;;;;31.23;8.48;;;;;;;14.37;47.47;100649.81;1617312;88;21272;-79
2023/05/14 02:29:46;;;;;;;32.58;9.23;;;;;;;14.49;47.13;100646.94;1615912;88;21285;-79
2023/05/14 02:32:54;;;;;;;41.55;11.50;;;;;;;14.44;47.31;100652.11;1613958;89;21210;-79
2023/05/14 02:36:00;;;;;;;35.70;10.10;;;;;;;14.68;47.14;100648.70;1599387;89;21288;-79
2023/05/14 02:39:07;;;;;;;24.47;9.13;;;;;;;14.77;46.94;100644.78;1591708;89;21237;-80
2023/05/14 02:42:13;;;;;;;25.77;8.88;;;;;;;14.71;47.10;100646.95;1596551;89;21208;-78
2023/05/14 02:45:20;;;;;;;30.92;8.30;;;;;;;14.76;46.91;100647.22;1614057;89;21272;-79
2023/05/14 02:48:27;;;;;;;31.50;9.13;;;;;;;14.77;46.89;100645.67;1600006;89;21224;-79
2023/05/14 02:51:32;;;;;;;22.93;9.00;;;;;;;14.94;46.62;100650.37;1587325;90;21232;-79
2023/05/14 02:54:38;;;;;;;21.82;9.58;;;;;;;14.91;46.87;100649.38;1599980;89;21243;-79
2023/05/14 02:57:43;;;;;;;31.40;10.03;;;;;;;14.69;47.43;100652.66;1587266;90;21229;-79
2023/05/14 03:00:49;;;;;;;36.65;11.50;;;;;;;14.82;47.54;100647.83;1645682;86;21257;-79
2023/05/14 03:03:55;;;;;;;35.70;11.70;;;;;;;14.83;47.83;100653.13;1645850;87;21295;-79
2023/05/14 03:07:01;;;;;;;30.80;11.65;;;;;;;15.15;47.60;100657.80;1645002;87;21285;-78
2023/05/14 03:10:07;;;;;;;31.25;12.07;;;;;;;15.18;47.72;100655.16;1645788;87;21266;-79
2023/05/14 03:13:19;;;;;;;40.65;11.80;;;;;;;15.20;47.75;100653.92;1645837;87;21230;-79
2023/05/14 03:16:21;;;;;;;30.32;10.25;;;;;;;14.73;48.93;100657.27;1644528;87;21274;-79
2023/05/14 03:19:27;;;;;;;22.80;9.83;;;;;;;15.14;48.42;100660.73;1644554;87;21765;-79
2023/05/14 03:22:33;;;;;;;33.80;10.30;;;;;;;15.77;47.25;100663.09;1644587;87;21833;-79
2023/05/14 03:25:39;;;;;;;28.92;9.98;;;;;;;16.22;46.49;100660.80;1644515;87;21291;-79
2023/05/14 03:28:41;;;;;;;21.97;9.10;;;;;;;16.59;46.02;100664.45;1645847;87;21784;-79
2023/05/14 03:31:39;;;;;;;19.02;8.55;;;;;;;16.91;45.49;100663.42;1647673;86;21332;-79
2023/05/14 03:34:45;;;;;;;21.85;8.48;;;;;;;16.73;45.62;100661.25;1633553;88;21244;-79
2023/05/14 03:37:51;;;;;;;20.55;8.75;;;;;;;17.53;44.26;100670.48;1630034;88;21212;-79
2023/05/14 03:40:58;;;;;;;23.27;9.45;;;;;;;17.75;44.05;100667.55;1631708;87;21264;-79
2023/05/14 03:44:05;;;;;;;27.45;8.48;;;;;;;18.08;44.61;100673.02;1649571;86;21223;-79
2023/05/14 03:47:09;;;;;;;18.52;8.30;;;;;;;18.61;44.37;100676.43;1645562;87;21243;-79
2023/05/14 03:50:16;;;;;;;28.30;7.72;;;;;;;18.93;43.87;100670.98;1646258;87;21543;-79
2023/05/14 03:53:22;;;;;;;21.90;8.08;;;;;;;18.97;43.62;100673.63;1645897;87;21258;-79
2023/05/14 03:56:28;;;;;;;18.98;8.33;;;;;;;19.38;42.23;100679.18;1646022;87;21213;-79
2023/05/14 03:59:34;;;;;;;16.50;6.65;;;;;;;19.40;41.98;100678.44;1646022;87;21257;-79
2023/05/14 04:02:41;;;;;;;25.08;6.58;;;;;;;19.49;41.43;100681.25;1645994;87;21809;-79
2023/05/14 04:05:49;;;;;;;15.35;5.90;;;;;;;19.70;40.09;100678.63;1646021;87;21766;-79
2023/05/14 04:08:54;;;;;;;20.92;7.45;;;;;;;19.80;39.81;100684.50;1645715;87;21323;-79
2023/05/14 04:12:00;;;;;;;18.37;6.95;;;;;;;19.77;39.83;100680.81;1645155;87;21278;-79
2023/05/14 04:15:07;;;;;;;21.50;7.35;;;;;;;19.79;39.69;100677.80;1644847;87;21278;-79
2023/05/14 04:18:14;;;;;;;21.75;7.72;;;;;;;19.76;39.96;100680.52;1645203;87;21234;-79
2023/05/14 04:21:20;;;;;;;20.15;6.67;;;;;;;19.98;39.28;100686.47;1624782;88;21205;-80
2023/05/14 04:24:26;;;;;;;27.30;7.20;;;;;;;20.17;38.61;100690.97;1622586;88;21887;-80
2023/05/14 04:27:28;;;;;;;19.13;6.80;;;;;;;20.35;38.68;100686.51;1622803;88;21264;-79
2023/05/14 04:30:35;;;;;;;16.00;6.08;;;;;;;20.59;38.13;100685.59;1623028;88;21249;-80
2023/05/14 04:33:40;;;;;;;15.30;6.47;;;;;;;20.54;38.52;100681.82;1616216;88;21323;-79
2023/05/14 04:36:46;;;;;;;16.25;6.87;;;;;;;20.37;39.06;100685.72;1612225;88;21775;-79
2023/05/14 04:39:52;;;;;;;18.65;5.97;;;;;;;20.72;38.59;100683.73;1619614;88;21374;-80
2023/05/14 04:42:59;;;;;;;18.32;6.15;;;;;;;20.95;37.83;100683.84;1602374;89;21220;-79
2023/05/14 04:46:05;;;;;;;17.67;6.92;;;;;;;20.67;38.24;100690.00;1602537;89;21213;-79
2023/05/14 04:49:11;;;;;;;17.60;6.55;;;;;;;20.93;38.12;100695.72;1601517;89;21249;-80
2023/05/14 04:52:17;;;;;;;14.63;5.92;;;;;;;21.24;37.21;100686.84;1602589;89;21228;-79
2023/05/14 04:55:24;;;;;;;18.12;5.37;;;;;;;20.72;38.73;100688.75;1601839;89;21244;-80
2023/05/14 04:58:31;;;;;;;26.52;6.10;;;;;;;21.28;38.07;100682.50;1601360;89;21288;-79
2023/05/14 05:01:37;;;;;;;17.12;5.78;;;;;;;21.44;36.83;100681.83;1601306;89;21220;-80
2023/05/14 05:04:44;;;;;;;11.75;5.00;;;;;;;21.87;36.02;100680.66;1602481;89;21225;-80
2023/05/14 05:07:50;;;;;;;11.40;4.90;;;;;;;21.73;36.06;100680.05;1602246;89;21288;-79
2023/05/14 05:10:56;;;;;;;15.43;5.47;;;;;;;21.90;36.26;100678.80;1601643;89;21248;-79
2023/05/14 05:14:02;;;;;;;19.75;4.80;;;;;;;21.97;36.14;100673.09;1602555;89;21224;-79
2023/05/14 05:17:08;;;;;;;12.85;5.45;;;;;;;21.95;36.46;100681.70;1602550;89;21204;-80
2023/05/14 05:20:15;;;;;;;15.05;4.05;;;;;;;22.06;35.92;100685.02;1602519;89;21783;-80
2023/05/14 05:23:22;;;;;;;13.72;4.47;;;;;;;22.05;35.68;100685.27;1602412;89;21236;-80
2023/05/14 05:26:27;;;;;;;13.78;4.87;;;;;;;21.97;36.92;100680.91;1601615;89;21326;-79
2023/05/14 05:29:33;;;;;;;13.75;4.20;;;;;;;22.27;35.86;100680.81;1601569;89;21260;-80
2023/05/14 05:32:39;;;;;;;17.82;4.60;;;;;;;22.53;35.71;100689.71;1602480;89;21229;-80
2023/05/14 05:35:44;;;;;;;8.20;4.10;;;;;;;22.67;34.65;100690.58;1622202;88;21276;-79
2023/05/14 05:38:51;;;;;;;6.72;3.60;;;;;;;22.77;33.47;100687.15;1622273;88;21232;-79
2023/05/14 05:41:56;;;;;;;12.60;3.37;;;;;;;22.86;33.23;100691.80;1621738;88;21315;-79
2023/05/14 05:45:01;;;;;;;13.22;4.05;;;;;;;23.02;32.58;100686.86;1622839;88;21551;-79
2023/05/14 05:48:08;;;;;;;13.40;3.72;;;;;;;23.19;32.16;100693.86;1622738;88;21280;-80
2023/05/14 05:51:14;;;;;;;11.95;3.65;;;;;;;22.97;32.42;100690.11;1646020;87;21781;-80
2023/05/14 05:54:19;;;;;;;12.75;3.50;;;;;;;23.29;32.59;100688.49;1646012;87;21223;-80
2023/05/14 05:57:25;;;;;;;9.03;3.22;;;;;;;23.63;32.43;100685.17;1644649;87;21310;-80
2023/05/14 06:00:32;;;;;;;6.60;3.58;;;;;;;23.80;31.38;100684.34;1645260;87;21234;-80
2023/05/14 06:03:36;;;;;;;9.83;3.45;;;;;;;24.01;31.05;100683.57;1624630;88;21216;-80
2023/05/14 06:06:42;;;;;;;12.88;3.47;;;;;;;24.19;30.75;100685.24;1622832;88;21264;-80
2023/05/14 06:09:48;;;;;;;10.28;3.80;;;;;;;24.34;30.13;100685.45;1622096;88;21260;-79
2023/05/14 06:12:54;;;;;;;13.22;3.80;;;;;;;24.50;29.58;100679.53;1622752;88;21213;-79
2023/05/14 06:16:01;;;;;;;14.85;3.85;;;;;;;24.67;29.59;100679.48;1645952;87;21223;-79
2023/05/14 06:19:08;;;;;;;14.58;4.00;;;;;;;24.88;29.27;100674.96;1645561;87;21896;-79
2023/05/14 06:22:15;;;;;;;8.55;3.62;;;;;;;25.06;29.05;100684.41;1624603;88;21759;-79
2023/05/14 06:25:20;;;;;;;7.47;4.03;;;;;;;25.01;28.00;100682.95;1622776;88;21903;-79
2023/05/14 06:28:26;;;;;;;13.55;5.03;;;;;;;24.90;28.13;100676.96;1621531;88;21264;-79
2023/05/14 06:31:32;;;;;;;12.25;4.90;;;;;;;25.06;27.85;100682.16;1622691;88;21535;-79
2023/05/14 06:34:39;;;;;;;8.65;4.50;;;;;;;25.11;27.38;100677.48;1618666;88;21308;-79
2023/05/14 06:37:45;;;;;;;22.10;6.08;;;;;;;25.29;26.79;100674.87;1602004;89;21269;-79
2023/05/14 06:40:54;;;;;;;12.40;3.77;;;;;;;25.16;27.17;100679.50;1601387;89;21878;-79
2023/05/14 06:44:00;;;;;;;19.45;4.45;;;;;;;25.10;26.49;100676.36;1602206;89;21843;-79
2023/05/14 06:47:07;;;;;;;7.80;3.52;;;;;;;25.20;26.97;100673.11;1602010;89;21276;-79
2023/05/14 06:50:14;;;;;;;15.15;4.47;;;;;;;25.43;26.72;100669.69;1601301;89;21241;-79
2023/05/14 06:53:20;;;;;;;9.45;4.60;;;;;;;25.27;28.34;100669.27;1601945;89;21265;-79
2023/05/14 06:56:27;;;;;;;10.05;3.10;;;;;;;25.30;29.99;100676.56;1601928;89;21806;-79
2023/05/14 06:59:32;;;;;;;11.20;3.10;;;;;;;25.36;28.20;100673.25;1601817;89;21228;-79
2023/05/14 07:02:39;;;;;;;6.92;3.00;;;;;;;25.26;28.23;100675.95;1601967;89;21221;-79
2023/05/14 07:05:46;;;;;;;6.87;2.05;;;;;;;25.22;28.10;100679.30;1644560;87;21226;-79
2023/05/14 07:08:45;;;;;;;11.08;2.62;;;;;;;25.47;29.68;100668.05;1641429;87;21850;-79
2023/05/14 07:11:51;;;;;;;8.90;3.35;;;;;;;25.58;28.45;100674.02;1632935;88;21303;-78
2023/05/14 07:14:56;;;;;;;5.62;2.42;;;;;;;25.51;29.55;100667.81;1633877;88;21228;-79
2023/05/14 07:18:01;;;;;;;4.80;2.33;;;;;;;25.57;29.10;100668.69;1625434;88;21768;-79
2023/05/14 07:21:07;;;;;;;5.75;2.50;;;;;;;25.70;28.14;100669.09;1625455;87;21339;-79
2023/05/14 07:24:12;;;;;;;8.65;2.40;;;;;;;25.69;26.98;100673.56;1626745;88;21834;-80
2023/05/14 07:27:18;;;;;;;5.92;2.87;;;;;;;25.64;27.60;100674.89;1606465;89;21320;-80
2023/05/14 07:30:23;;;;;;;6.90;3.20;;;;;;;25.65;27.79;100666.81;1632815;88;21260;-79
2023/05/14 07:33:30;;;;;;;8.15;3.12;;;;;;;25.58;29.00;100661.97;1633608;88;21224;-79
2023/05/14 07:36:36;;;;;;;7.70;2.75;;;;;;;25.80;28.49;100666.95;1632758;86;21260;-80
2023/05/14 07:39:42;;;;;;;11.60;3.80;;;;;;;25.95;27.90;100663.41;1626726;88;21268;-80
2023/05/14 07:42:48;;;;;;;14.33;3.10;;;;;;;26.19;26.89;100660.47;1633404;88;21247;-79
2023/05/14 07:45:54;;;;;;;5.15;2.47;;;;;;;25.71;27.21;100663.77;1632725;88;21208;-79
2023/05/14 07:48:59;;;;;;;12.50;2.90;;;;;;;25.72;27.41;100658.44;1632798;87;21216;-79
2023/05/14 07:52:05;;;;;;;5.53;2.12;;;;;;;25.80;27.99;100654.91;1633782;88;21756;-79
2023/05/14 07:55:11;;;;;;;5.75;2.58;;;;;;;25.71;26.78;100659.56;1625282;87;21257;-79
2023/05/14 07:58:18;;;;;;;4.17;2.05;;;;;;;25.62;26.94;100658.38;1631097;88;21287;-79
2023/05/14 08:01:24;;;;;;;15.10;2.40;;;;;;;25.56;27.34;100653.84;1614444;88;21863;-79
2023/05/14 08:07:42;;;;;;;6.42;2.30;;;;;;;25.81;27.55;100657.42;1602054;89;21779;-79
2023/05/14 08:10:48;;;;;;;4.50;2.60;;;;;;;26.08;27.66;100655.94;1601778;89;21296;-79
2023/05/14 08:13:54;;;;;;;8.73;3.10;;;;;;;25.84;27.46;100654.66;1601288;89;21539;-79
2023/05/14 08:16:54;;;;;;;8.58;2.25;;;;;;;25.90;28.05;100649.36;1602293;89;21293;-79
2023/05/14 08:20:00;;;;;;;4.78;2.10;;;;;;;26.02;25.32;100654.22;1602085;89;21236;-79
2023/05/14 08:23:08;;;;;;;6.72;3.17;;;;;;;26.09;25.07;100656.22;1602006;89;21232;-79
2023/05/14 08:26:13;;;;;;;6.90;3.45;;;;;;;25.98;26.73;100648.31;1602082;89;21339;-79
2023/05/14 08:29:18;;;;;;;11.50;3.40;;;;;;;25.97;27.00;100654.16;1601092;89;21256;-79
2023/05/14 08:32:24;;;;;;;10.23;3.10;;;;;;;25.89;26.51;100652.73;1600888;89;21300;-79
2023/05/14 08:35:30;;;;;;;4.50;2.60;;;;;;;25.72;26.62;100654.24;1600874;89;21396;-79
2023/05/14 08:38:36;;;;;;;5.92;2.70;;;;;;;25.66;25.94;100646.92;1593429;88;21316;-79
2023/05/14 08:41:41;;;;;;;5.92;2.55;;;;;;;25.98;26.68;100646.06;1593233;90;21347;-79
2023/05/14 08:44:52;;;;;;;6.47;2.72;;;;;;;25.98;25.86;100642.70;1592995;90;21818;-79
2023/05/14 08:47:59;;;;;;;9.90;1.60;;;;;;;26.06;26.81;100642.73;1594000;90;21236;-79
2023/05/14 08:51:04;;;;;;;7.30;2.22;;;;;;;25.87;24.09;100631.13;1586902;90;21236;-79
2023/05/14 08:54:13;;;;;;;5.40;1.98;;;;;;;25.97;23.96;100631.74;1580242;90;21224;-79
2023/05/14 08:57:17;;;;;;;2.98;1.40;;;;;;;25.85;25.93;100625.52;1589926;90;21249;-79
2023/05/14 09:00:23;;;;;;;9.75;2.40;;;;;;;25.83;25.62;100636.13;1589533;89;21236;-79
2023/05/14 09:03:28;;;;;;;7.87;2.42;;;;;;;25.89;24.97;100628.07;1596386;89;22584;-79
2023/05/14 09:06:35;;;;;;;6.08;2.15;;;;;;;26.04;24.74;100619.75;1585922;90;21261;-79
2023/05/14 09:09:40;;;;;;;8.78;2.20;;;;;;;25.72;24.51;100615.58;1595975;90;21818;-79
2023/05/14 09:12:46;;;;;;;2.98;1.98;;;;;;;25.69;25.36;100613.34;1644836;87;21298;-79
2023/05/14 09:15:51;;;;;;;4.47;1.82;;;;;;;26.21;24.49;100612.00;1645770;87;21199;-79
2023/05/14 09:18:57;;;;;;;4.40;2.05;;;;;;;26.22;23.56;100609.48;1645805;87;21223;-79
2023/05/14 09:22:04;;;;;;;4.45;1.90;;;;;;;26.16;22.98;100607.77;1644866;87;21218;-79
2023/05/14 09:25:13;;;;;;;8.23;2.10;;;;;;;25.46;23.34;100603.36;1645815;87;21341;-79
2023/05/14 09:28:20;;;;;;;5.70;1.90;;;;;;;25.39;23.29;100610.56;1608856;89;21245;-80
2023/05/14 09:31:26;;;;;;;6.95;2.17;;;;;;;25.40;24.04;100601.61;1598886;89;21336;-80
2023/05/14 09:34:39;;;;;;;4.08;1.92;;;;;;;25.86;23.41;100593.58;1586151;90;21787;-79
2023/05/14 09:37:42;;;;;;;5.37;1.90;;;;;;;25.90;24.13;100594.72;1602251;86;21236;-79
2023/05/14 09:40:48;;;;;;;10.78;2.00;;;;;;;26.20;24.16;100586.46;1635064;86;21210;-80
2023/05/14 09:43:55;;;;;;;7.55;2.30;;;;;;;26.39;23.04;100597.20;1655051;86;21202;-80
2023/05/14 09:47:03;;;;;;;8.70;2.58;;;;;;;26.43;22.68;100589.39;1650747;86;21202;-79
2023/05/14 09:50:09;;;;;;;6.37;2.05;;;;;;;26.48;24.06;100585.77;1645948;87;21254;-80
2023/05/14 09:53:16;;;;;;;6.22;2.37;;;;;;;25.99;24.71;100578.53;1644855;87;21809;-80
2023/05/14 09:56:22;;;;;;;8.63;2.40;;;;;;;26.03;24.77;100572.39;1646114;87;21210;-80
2023/05/14 09:59:28;;;;;;;12.82;2.58;;;;;;;26.76;23.57;100574.06;1645929;87;21266;-80
2023/05/14 10:02:45;;;;;;;4.70;2.33;;;;;;;26.65;23.73;100576.57;1645855;87;21214;-79
2023/05/14 10:05:50;;;;;;;5.87;2.20;;;;;;;26.64;23.56;100562.27;1630340;87;21218;-79
2023/05/14 10:08:56;;;;;;;5.03;2.27;;;;;;;26.85;24.15;100559.49;1645954;87;21215;-80
2023/05/14 10:12:01;;;;;;;5.65;2.80;;;;;;;26.96;24.44;100552.76;1645916;87;21282;-80
2023/05/14 10:15:11;;;;;;;10.05;2.42;;;;;;;27.16;23.75;100557.03;1645724;87;22431;-79
2023/05/14 10:18:18;;;;;;;;;;;;;;;27.17;23.23;100553.66;1648537;87;21544;-80
2023/05/14 10:21:26;;;;;;;5.53;2.12;;;;;;;27.04;23.45;100552.21;1646061;87;20230;-79
2023/05/14 10:24:32;;;;;;;8.85;2.70;;;;;;;26.89;23.44;100548.00;1646090;87;21778;-79
2023/05/14 10:27:38;;;;;;;11.93;2.12;;;;;;;26.95;23.26;100548.27;1644790;87;21206;-79
2023/05/14 10:30:50;;;;;;;9.25;2.65;;;;;;;27.14;23.47;100545.22;1645255;87;21238;-80
2023/05/14 10:33:56;;;;;;;4.58;2.30;;;;;;;27.26;23.39;100549.17;1644747;87;21793;-80
2023/05/14 10:37:00;;;;;;;9.23;3.05;;;;;;;27.09;24.56;100548.03;1644792;87;21227;-79
2023/05/14 10:40:10;;;;;;;8.20;2.50;;;;;;;26.88;24.63;100547.16;1643419;87;21258;-80
2023/05/14 10:43:16;;;;;;;3.33;2.02;;;;;;;26.91;24.06;100555.56;1645373;87;21274;-79
2023/05/14 10:46:21;;;;;;;4.25;2.30;;;;;;;26.50;23.55;100552.14;1646146;87;21254;-79
2023/05/14 10:49:26;;;;;;;4.55;2.27;;;;;;;26.27;23.36;100560.16;1645835;87;21198;-79
2023/05/14 10:52:34;;;;;;;8.60;2.80;;;;;;;26.10;22.46;100545.77;1645469;87;21876;-79
2023/05/14 10:55:39;;;;;;;8.23;1.98;;;;;;;26.18;24.52;100547.22;1645768;87;21212;-80
2023/05/14 10:58:46;;;;;;;6.60;2.50;;;;;;;26.10;23.26;100533.72;1627891;87;21226;-79
2023/05/14 11:01:52;;;;;;;4.28;1.98;;;;;;;25.61;23.19;100541.85;1644910;87;21836;-79
2023/05/14 11:05:08;;;;;;;6.05;2.17;;;;;;;25.42;23.10;100543.41;1616971;86;21228;-79
2023/05/14 11:08:13;;;;;;;5.30;2.20;;;;;;;25.20;24.64;100538.75;1641731;87;21260;-79
2023/05/14 11:11:20;;;;;;;6.95;1.80;;;;;;;25.34;25.65;100538.30;1626796;88;21256;-79
2023/05/14 11:14:26;;;;;;;4.83;1.98;;;;;;;25.35;26.00;100539.42;1626142;88;21879;-80
2023/05/14 11:17:34;;;;;;;3.77;1.87;;;;;;;25.36;26.16;100533.26;1625697;88;21256;-80
2023/05/14 11:20:39;;;;;;;4.83;2.15;;;;;;;25.49;26.20;100533.64;1626874;88;21830;-80
2023/05/14 11:23:45;;;;;;;2.15;1.50;;;;;;;25.72;26.31;100531.55;1617775;88;21221;-79
2023/05/14 11:26:51;;;;;;;5.22;1.85;;;;;;;25.98;25.84;100529.77;1626869;88;21205;-79
2023/05/14 11:29:56;;;;;;;6.22;1.60;;;;;;;25.87;26.80;100533.05;1626730;88;21216;-79
2023/05/14 11:33:03;;;;;;;3.95;2.25;;;;;;;25.98;25.74;100538.17;1626746;88;21225;-79
2023/05/14 11:36:09;;;;;;;15.25;2.85;;;;;;;26.17;24.85;100539.38;1626969;88;21260;-79
2023/05/14 11:39:18;;;;;;;11.50;3.05;;;;;;;26.33;24.03;100535.22;1626732;88;21221;-79
2023/05/14 11:42:24;;;;;;;3.85;1.95;;;;;;;26.41;24.57;100530.48;1627194;88;21209;-79
2023/05/14 11:45:35;;;;;;;8.13;2.37;;;;;;;26.47;24.47;100531.64;1626446;88;21277;-79
2023/05/14 11:48:34;;;;;;;9.40;2.62;;;;;;;26.60;25.25;100517.66;1628316;88;21268;-79
2023/05/14 11:51:39;;;;;;;7.80;2.72;;;;;;;26.46;23.88;100520.71;1632041;87;21217;-79
2023/05/14 11:54:45;;;;;;;7.10;2.60;;;;;;;26.56;23.77;100514.28;1631069;88;22487;-79
2023/05/14 11:57:50;;;;;;;6.45;1.90;;;;;;;26.64;24.43;100514.58;1633475;88;21220;-79
2023/05/14 12:00:59;;;;;;;2.83;1.90;;;;;;;26.56;24.03;100513.72;1632907;88;21346;-79
2023/05/14 12:04:03;;;;;;;6.30;2.12;;;;;;;26.63;24.06;100520.45;1632839;88;21220;-79
2023/05/14 12:07:17;;;;;;;5.75;2.22;;;;;;;26.50;23.60;100518.48;1632917;88;21216;-79
2023/05/14 12:10:24;;;;;;;5.90;2.40;;;;;;;26.47;23.45;100509.77;1634236;88;21204;-79
2023/05/14 12:13:25;;;;;;;7.08;2.40;;;;;;;26.55;23.74;100503.62;1632917;88;21909;-79
2023/05/14 12:16:31;;;;;;;3.80;1.80;;;;;;;26.67;23.39;100504.19;1631212;88;21193;-79
2023/05/14 12:19:37;;;;;;;5.35;1.98;;;;;;;26.78;24.67;100503.66;1601356;89;21271;-79
2023/05/14 12:22:43;;;;;;;6.05;2.15;;;;;;;26.85;24.51;100494.38;1644011;87;21218;-79
2023/05/14 12:25:57;;;;;;;8.15;3.15;;;;;;;26.95;24.03;100491.58;1633096;88;21767;-79
2023/05/14 12:29:09;;;;;;;6.60;2.15;;;;;;;27.00;23.55;100494.37;1634184;88;21746;-79
2023/05/14 12:32:18;;;;;;;3.67;2.05;;;;;;;27.12;24.00;100487.13;1633889;88;21323;-79
2023/05/14 12:35:24;;;;;;;4.97;2.22;;;;;;;27.33;25.23;100489.89;1633387;88;21567;-79
2023/05/14 12:38:30;;;;;;;5.33;2.27;;;;;;;27.46;25.75;100489.31;1626352;88;21216;-79
2023/05/14 12:41:44;;;;;;;4.92;2.55;;;;;;;27.50;25.56;100494.64;1634979;87;21251;-79
2023/05/14 12:44:51;;;;;;;6.05;2.47;;;;;;;27.24;25.12;100499.45;1631150;88;21220;-79
2023/05/14 12:47:56;;;;;;;6.03;1.98;;;;;;;27.42;23.48;100497.46;1627501;88;21779;-79
2023/05/14 12:51:02;;;;;;;5.35;2.17;;;;;;;27.48;22.14;100494.10;1627579;87;21217;-79
2023/05/14 12:54:09;;;;;;;8.48;2.67;;;;;;;27.45;23.44;100498.30;1627228;88;21248;-80
2023/05/14 12:57:15;;;;;;;4.58;1.92;;;;;;;27.45;22.22;100496.06;1627676;88;21260;-79
2023/05/14 13:00:22;;;;;;;5.65;2.02;;;;;;;27.40;22.35;100494.67;1627512;88;21236;-80
2023/05/14 13:03:28;;;;;;;5.17;2.10;;;;;;;27.45;22.52;100496.06;1627582;88;21307;-80
2023/05/14 13:06:33;;;;;;;4.10;2.10;;;;;;;27.54;22.63;100498.58;1621608;88;21221;-80
2023/05/14 13:09:33;;;;;;;8.13;2.08;;;;;;;27.58;22.83;100510.93;1622719;88;21265;-80
2023/05/14 13:12:38;;;;;;;8.33;3.00;;;;;;;27.43;22.54;100520.23;1596309;90;21335;-80
2023/05/14 13:15:45;;;;;;;10.70;3.20;;;;;;;27.05;25.15;100527.22;1622218;88;21240;-79
2023/05/14 13:18:51;;;;;;;8.70;2.85;;;;;;;26.76;25.91;100519.34;1615970;88;21284;-80
2023/05/14 13:21:56;;;;;;;6.70;2.50;;;;;;;26.53;26.35;100524.64;1625634;88;21275;-79
2023/05/14 13:25:01;;;;;;;7.60;1.98;;;;;;;26.38;25.49;100522.61;1628275;88;21217;-79
2023/05/14 13:28:08;;;;;;;21.15;2.58;;;;;;;25.57;26.08;100508.49;1625616;88;21212;-79
2023/05/14 13:31:18;;;;;;;8.60;2.62;;;;;;;25.01;27.22;100517.02;1625532;88;21260;-79
2023/05/14 13:34:24;;;;;;;8.53;2.52;;;;;;;25.36;26.03;100513.66;1626060;88;21276;-79
2023/05/14 13:37:32;;;;;;;9.40;2.87;;;;;;;25.14;26.42;100518.00;1627088;88;21787;-79
2023/05/14 13:40:30;;;;;;;12.05;2.65;;;;;;;25.08;26.10;100518.52;1626923;88;21200;-79
2023/05/14 13:43:38;;;;;;;7.30;2.90;;;;;;;25.19;26.23;100509.64;1622899;86;21284;-79
2023/05/14 13:46:43;;;;;;;5.62;2.27;;;;;;;24.74;26.52;100518.72;1606761;88;21225;-79
2023/05/14 13:49:50;;;;;;;8.03;2.20;;;;;;;24.97;25.62;100523.69;1621869;88;21300;-80
2023/05/14 13:52:56;;;;;;;8.13;2.65;;;;;;;24.99;25.25;100526.53;1622696;88;21518;-79
2023/05/14 13:56:02;;;;;;;8.95;3.25;;;;;;;25.01;25.65;100520.66;1622237;88;22509;-79
2023/05/14 13:59:07;;;;;;;4.85;2.17;;;;;;;25.29;25.16;100522.30;1622659;88;21228;-79
2023/05/14 14:02:13;;;;;;;4.17;2.12;;;;;;;25.10;24.58;100520.48;1622576;88;21220;-79
2023/05/14 14:05:19;;;;;;;12.70;2.20;;;;;;;25.19;24.44;100510.48;1621421;88;21236;-80
2023/05/14 14:08:25;;;;;;;4.78;1.82;;;;;;;25.24;24.68;100516.67;1622618;88;21225;-79
2023/05/14 14:11:31;;;;;;;6.08;1.95;;;;;;;25.31;24.07;100524.27;1622579;88;21224;-80
2023/05/14 14:14:36;;;;;;;14.38;2.50;;;;;;;25.31;24.53;100523.42;1607468;88;21776;-79
2023/05/14 14:17:42;;;;;;;4.10;2.10;;;;;;;25.34;24.03;100517.30;1622518;88;21802;-78
2023/05/14 14:20:47;;;;;;;5.62;2.37;;;;;;;25.34;23.76;100517.30;1621294;88;21299;-79
2023/05/14 14:23:56;;;;;;;5.90;2.20;;;;;;;24.47;24.98;100517.36;1622709;88;21224;-79